Corinth, Vermont
Current Conditions -  °F | °C
As of 4:51 PM on Sunday 23 Nov 2014 (Local Time) from KMPV Reporting Station
Few Clouds Few Clouds  
Wind Chill: 41°   Ceiling: Unl
Heat Index: 45°   Visibility: 10mi
Dew Point: 38°   Wind: 8mph
Humidity: 76%   Direction: 210°SSW
Pressure: 30.1"   Gusts: NA
Location:  44.02°N, 72.3°W
Report Text: KMPV 232151Z AUTO 21007KT 10SM FEW050 07/03 A3010 RMK AO2 SLP200 T00720033
Loading
Personal Weather Stations






























Interactive Weather Map New forecast layout! Learn more

10-Day Weather Forecast

Advertisements
Track Severe Weather on mobile